sensor_id;sensor_type;location;lat;lon;timestamp;temperature;humidity
81630;DHT22;71039;49.500;10.418;2023-12-29T00:01:29;11.10;67.20
81630;DHT22;71039;49.500;10.418;2023-12-29T00:03:55;11.10;67.10
81630;DHT22;71039;49.500;10.418;2023-12-29T00:06:21;11.10;67.10
81630;DHT22;71039;49.500;10.418;2023-12-29T00:08:46;11.10;67.10
81630;DHT22;71039;49.500;10.418;2023-12-29T00:11:19;11.20;67.10
81630;DHT22;71039;49.500;10.418;2023-12-29T00:13:45;11.20;67.10
81630;DHT22;71039;49.500;10.418;2023-12-29T00:16:11;11.20;67.10
81630;DHT22;71039;49.500;10.418;2023-12-29T00:18:39;11.20;67.10
81630;DHT22;71039;49.500;10.418;2023-12-29T00:21:05;11.30;67.10
81630;DHT22;71039;49.500;10.418;2023-12-29T00:23:31;11.30;67.10
81630;DHT22;71039;49.500;10.418;2023-12-29T00:25:56;11.30;67.00
81630;DHT22;71039;49.500;10.418;2023-12-29T00:28:22;11.30;67.00
81630;DHT22;71039;49.500;10.418;2023-12-29T00:30:47;11.30;67.00
81630;DHT22;71039;49.500;10.418;2023-12-29T00:33:13;11.40;67.00
81630;DHT22;71039;49.500;10.418;2023-12-29T00:35:38;11.40;66.90
81630;DHT22;71039;49.500;10.418;2023-12-29T00:38:04;11.40;66.90
81630;DHT22;71039;49.500;10.418;2023-12-29T00:40:30;11.40;66.90
81630;DHT22;71039;49.500;10.418;2023-12-29T00:42:56;11.40;66.90
81630;DHT22;71039;49.500;10.418;2023-12-29T00:45:21;11.40;66.80
81630;DHT22;71039;49.500;10.418;2023-12-29T00:47:47;11.40;66.80
81630;DHT22;71039;49.500;10.418;2023-12-29T00:50:13;11.50;66.80
81630;DHT22;71039;49.500;10.418;2023-12-29T00:52:38;11.50;66.80
81630;DHT22;71039;49.500;10.418;2023-12-29T00:55:04;11.50;66.70
81630;DHT22;71039;49.500;10.418;2023-12-29T00:57:30;11.50;66.70
81630;DHT22;71039;49.500;10.418;2023-12-29T00:59:55;11.50;66.70
81630;DHT22;71039;49.500;10.418;2023-12-29T01:02:21;11.50;66.70
81630;DHT22;71039;49.500;10.418;2023-12-29T01:04:48;11.50;66.70
81630;DHT22;71039;49.500;10.418;2023-12-29T01:07:14;11.50;66.70
81630;DHT22;71039;49.500;10.418;2023-12-29T01:09:39;11.50;66.70
81630;DHT22;71039;49.500;10.418;2023-12-29T01:12:05;11.50;66.60
81630;DHT22;71039;49.500;10.418;2023-12-29T01:14:31;11.50;66.60
81630;DHT22;71039;49.500;10.418;2023-12-29T01:16:58;11.50;66.60
81630;DHT22;71039;49.500;10.418;2023-12-29T01:19:23;11.50;66.60
81630;DHT22;71039;49.500;10.418;2023-12-29T01:21:49;11.50;66.60
81630;DHT22;71039;49.500;10.418;2023-12-29T01:24:14;11.50;66.60
81630;DHT22;71039;49.500;10.418;2023-12-29T01:26:41;11.50;66.60
81630;DHT22;71039;49.500;10.418;2023-12-29T01:29:06;11.50;66.60
81630;DHT22;71039;49.500;10.418;2023-12-29T01:31:32;11.50;66.60
81630;DHT22;71039;49.500;10.418;2023-12-29T01:33:58;11.50;66.70
81630;DHT22;71039;49.500;10.418;2023-12-29T01:36:23;11.50;66.70
81630;DHT22;71039;49.500;10.418;2023-12-29T01:38:49;11.50;66.70
81630;DHT22;71039;49.500;10.418;2023-12-29T01:41:15;11.50;66.70
81630;DHT22;71039;49.500;10.418;2023-12-29T01:46:35;11.50;66.70
81630;DHT22;71039;49.500;10.418;2023-12-29T01:49:01;11.50;66.70
81630;DHT22;71039;49.500;10.418;2023-12-29T01:51:27;11.50;66.70
81630;DHT22;71039;49.500;10.418;2023-12-29T01:53:54;11.50;66.70
81630;DHT22;71039;49.500;10.418;2023-12-29T01:56:21;11.40;66.80
81630;DHT22;71039;49.500;10.418;2023-12-29T01:58:48;11.50;66.80
81630;DHT22;71039;49.500;10.418;2023-12-29T02:01:15;11.50;66.80
81630;DHT22;71039;49.500;10.418;2023-12-29T02:03:42;11.40;66.90
81630;DHT22;71039;49.500;10.418;2023-12-29T02:06:08;11.50;66.90
81630;DHT22;71039;49.500;10.418;2023-12-29T02:08:36;11.40;66.90
81630;DHT22;71039;49.500;10.418;2023-12-29T02:11:03;11.40;66.90
81630;DHT22;71039;49.500;10.418;2023-12-29T02:13:29;11.40;67.00
81630;DHT22;71039;49.500;10.418;2023-12-29T02:15:55;11.50;66.90
81630;DHT22;71039;49.500;10.418;2023-12-29T02:18:28;11.40;67.00
81630;DHT22;71039;49.500;10.418;2023-12-29T02:20:55;11.50;67.00
81630;DHT22;71039;49.500;10.418;2023-12-29T02:23:20;11.50;67.10
81630;DHT22;71039;49.500;10.418;2023-12-29T02:25:46;11.40;67.10
81630;DHT22;71039;49.500;10.418;2023-12-29T02:28:17;11.50;67.00
81630;DHT22;71039;49.500;10.418;2023-12-29T02:30:46;11.40;67.00
81630;DHT22;71039;49.500;10.418;2023-12-29T02:33:21;11.40;67.00
81630;DHT22;71039;49.500;10.418;2023-12-29T02:35:48;11.40;67.00
81630;DHT22;71039;49.500;10.418;2023-12-29T02:38:15;11.40;67.00
81630;DHT22;71039;49.500;10.418;2023-12-29T02:40:41;11.40;66.90
81630;DHT22;71039;49.500;10.418;2023-12-29T02:43:11;11.40;66.90
81630;DHT22;71039;49.500;10.418;2023-12-29T02:45:36;11.40;66.70
81630;DHT22;71039;49.500;10.418;2023-12-29T02:48:02;11.40;66.60
81630;DHT22;71039;49.500;10.418;2023-12-29T02:50:28;11.40;66.60
81630;DHT22;71039;49.500;10.418;2023-12-29T02:52:53;11.30;66.50
81630;DHT22;71039;49.500;10.418;2023-12-29T02:55:19;11.30;66.50
81630;DHT22;71039;49.500;10.418;2023-12-29T02:57:44;11.30;66.40
81630;DHT22;71039;49.500;10.418;2023-12-29T03:00:11;11.20;66.30
81630;DHT22;71039;49.500;10.418;2023-12-29T03:02:36;11.10;66.20
81630;DHT22;71039;49.500;10.418;2023-12-29T03:05:03;11.10;66.20
81630;DHT22;71039;49.500;10.418;2023-12-29T03:07:28;11.10;66.20
81630;DHT22;71039;49.500;10.418;2023-12-29T03:09:54;11.00;66.30
81630;DHT22;71039;49.500;10.418;2023-12-29T03:12:20;10.90;66.40
81630;DHT22;71039;49.500;10.418;2023-12-29T03:14:45;10.90;66.40
81630;DHT22;71039;49.500;10.418;2023-12-29T03:17:11;10.90;66.50
81630;DHT22;71039;49.500;10.418;2023-12-29T03:19:37;10.80;66.70
81630;DHT22;71039;49.500;10.418;2023-12-29T03:22:03;10.80;66.80
81630;DHT22;71039;49.500;10.418;2023-12-29T03:24:30;10.80;66.80
81630;DHT22;71039;49.500;10.418;2023-12-29T03:26:55;10.70;66.80
81630;DHT22;71039;49.500;10.418;2023-12-29T03:29:21;10.70;66.70
81630;DHT22;71039;49.500;10.418;2023-12-29T03:31:47;10.70;66.80
81630;DHT22;71039;49.500;10.418;2023-12-29T03:34:12;10.60;66.80
81630;DHT22;71039;49.500;10.418;2023-12-29T03:36:38;10.60;66.90
81630;DHT22;71039;49.500;10.418;2023-12-29T03:39:03;10.60;67.00
81630;DHT22;71039;49.500;10.418;2023-12-29T03:41:29;10.50;67.10
81630;DHT22;71039;49.500;10.418;2023-12-29T03:43:55;10.50;67.30
81630;DHT22;71039;49.500;10.418;2023-12-29T03:46:22;10.50;67.30
81630;DHT22;71039;49.500;10.418;2023-12-29T03:48:48;10.50;67.30
81630;DHT22;71039;49.500;10.418;2023-12-29T03:51:14;10.50;67.40
81630;DHT22;71039;49.500;10.418;2023-12-29T03:53:40;10.50;67.30
81630;DHT22;71039;49.500;10.418;2023-12-29T03:56:14;10.40;67.30
81630;DHT22;71039;49.500;10.418;2023-12-29T03:58:40;10.50;67.20
81630;DHT22;71039;49.500;10.418;2023-12-29T04:01:13;10.40;67.20
81630;DHT22;71039;49.500;10.418;2023-12-29T04:03:39;10.40;67.20
81630;DHT22;71039;49.500;10.418;2023-12-29T04:06:05;10.40;67.30
81630;DHT22;71039;49.500;10.418;2023-12-29T04:08:31;10.40;67.30
81630;DHT22;71039;49.500;10.418;2023-12-29T04:10:57;10.30;67.20
81630;DHT22;71039;49.500;10.418;2023-12-29T04:13:22;10.30;67.30
81630;DHT22;71039;49.500;10.418;2023-12-29T04:15:48;10.30;67.30
81630;DHT22;71039;49.500;10.418;2023-12-29T04:18:13;10.30;67.20
81630;DHT22;71039;49.500;10.418;2023-12-29T04:20:39;10.20;67.20
81630;DHT22;71039;49.500;10.418;2023-12-29T04:23:06;10.20;67.20
81630;DHT22;71039;49.500;10.418;2023-12-29T04:25:32;10.20;67.20
81630;DHT22;71039;49.500;10.418;2023-12-29T04:27:57;10.20;67.20
81630;DHT22;71039;49.500;10.418;2023-12-29T04:30:23;10.10;67.20
81630;DHT22;71039;49.500;10.418;2023-12-29T04:32:49;10.10;67.30
81630;DHT22;71039;49.500;10.418;2023-12-29T04:35:16;10.10;67.60
81630;DHT22;71039;49.500;10.418;2023-12-29T04:37:44;10.10;67.70
81630;DHT22;71039;49.500;10.418;2023-12-29T04:40:10;10.10;67.80
81630;DHT22;71039;49.500;10.418;2023-12-29T04:42:36;10.10;67.90
81630;DHT22;71039;49.500;10.418;2023-12-29T04:45:01;10.10;68.00
81630;DHT22;71039;49.500;10.418;2023-12-29T04:47:27;10.10;68.00
81630;DHT22;71039;49.500;10.418;2023-12-29T04:49:52;10.10;68.10
81630;DHT22;71039;49.500;10.418;2023-12-29T04:52:18;10.10;68.10
81630;DHT22;71039;49.500;10.418;2023-12-29T04:54:43;10.10;68.10
81630;DHT22;71039;49.500;10.418;2023-12-29T04:57:09;10.10;68.00
81630;DHT22;71039;49.500;10.418;2023-12-29T04:59:34;10.20;68.00
81630;DHT22;71039;49.500;10.418;2023-12-29T05:02:00;10.20;67.90
81630;DHT22;71039;49.500;10.418;2023-12-29T05:04:25;10.20;67.80
81630;DHT22;71039;49.500;10.418;2023-12-29T05:06:51;10.20;67.70
81630;DHT22;71039;49.500;10.418;2023-12-29T05:09:16;10.20;67.70
81630;DHT22;71039;49.500;10.418;2023-12-29T05:11:42;10.20;67.70
81630;DHT22;71039;49.500;10.418;2023-12-29T05:14:11;10.10;67.80
81630;DHT22;71039;49.500;10.418;2023-12-29T05:16:36;10.10;67.90
81630;DHT22;71039;49.500;10.418;2023-12-29T05:19:02;10.10;68.00
81630;DHT22;71039;49.500;10.418;2023-12-29T05:21:27;10.10;68.10
81630;DHT22;71039;49.500;10.418;2023-12-29T05:23:53;10.10;68.20
81630;DHT22;71039;49.500;10.418;2023-12-29T05:26:19;10.10;68.20
81630;DHT22;71039;49.500;10.418;2023-12-29T05:28:44;10.20;68.20
81630;DHT22;71039;49.500;10.418;2023-12-29T05:31:10;10.20;68.30
81630;DHT22;71039;49.500;10.418;2023-12-29T05:33:36;10.20;68.10
81630;DHT22;71039;49.500;10.418;2023-12-29T05:36:08;10.20;68.00
81630;DHT22;71039;49.500;10.418;2023-12-29T05:38:34;10.20;67.80
81630;DHT22;71039;49.500;10.418;2023-12-29T05:41:00;10.20;67.70
81630;DHT22;71039;49.500;10.418;2023-12-29T05:43:26;10.20;67.60
81630;DHT22;71039;49.500;10.418;2023-12-29T05:45:52;10.20;67.60
81630;DHT22;71039;49.500;10.418;2023-12-29T05:48:17;10.20;67.70
81630;DHT22;71039;49.500;10.418;2023-12-29T05:50:43;10.20;67.70
81630;DHT22;71039;49.500;10.418;2023-12-29T05:53:08;10.10;67.70
81630;DHT22;71039;49.500;10.418;2023-12-29T05:55:34;10.10;67.60
81630;DHT22;71039;49.500;10.418;2023-12-29T05:57:59;10.10;67.60
81630;DHT22;71039;49.500;10.418;2023-12-29T06:00:25;10.10;67.60
81630;DHT22;71039;49.500;10.418;2023-12-29T06:02:50;10.10;67.60
81630;DHT22;71039;49.500;10.418;2023-12-29T06:05:16;10.10;67.60
81630;DHT22;71039;49.500;10.418;2023-12-29T06:07:41;10.00;67.70
81630;DHT22;71039;49.500;10.418;2023-12-29T06:10:07;10.00;67.70
81630;DHT22;71039;49.500;10.418;2023-12-29T06:12:33;10.00;67.70
81630;DHT22;71039;49.500;10.418;2023-12-29T06:14:58;10.00;67.70
81630;DHT22;71039;49.500;10.418;2023-12-29T06:17:24;10.00;67.80
81630;DHT22;71039;49.500;10.418;2023-12-29T06:19:49;10.00;67.90
81630;DHT22;71039;49.500;10.418;2023-12-29T06:22:15;10.00;67.90
81630;DHT22;71039;49.500;10.418;2023-12-29T06:24:40;10.00;68.00
81630;DHT22;71039;49.500;10.418;2023-12-29T06:27:09;10.00;68.20
81630;DHT22;71039;49.500;10.418;2023-12-29T06:29:35;10.00;68.30
81630;DHT22;71039;49.500;10.418;2023-12-29T06:32:02;10.00;68.40
81630;DHT22;71039;49.500;10.418;2023-12-29T06:34:27;10.00;68.40
81630;DHT22;71039;49.500;10.418;2023-12-29T06:36:53;10.00;68.40
81630;DHT22;71039;49.500;10.418;2023-12-29T06:39:18;10.00;68.40
81630;DHT22;71039;49.500;10.418;2023-12-29T06:41:44;10.00;68.40
81630;DHT22;71039;49.500;10.418;2023-12-29T06:44:09;10.00;68.50
81630;DHT22;71039;49.500;10.418;2023-12-29T06:46:37;10.10;68.60
81630;DHT22;71039;49.500;10.418;2023-12-29T06:49:03;10.10;68.70
81630;DHT22;71039;49.500;10.418;2023-12-29T06:51:28;10.10;68.80
81630;DHT22;71039;49.500;10.418;2023-12-29T06:53:54;10.10;68.80
81630;DHT22;71039;49.500;10.418;2023-12-29T06:56:20;10.20;68.90
81630;DHT22;71039;49.500;10.418;2023-12-29T06:58:46;10.20;68.90
81630;DHT22;71039;49.500;10.418;2023-12-29T07:01:12;10.20;69.00
81630;DHT22;71039;49.500;10.418;2023-12-29T07:03:37;10.30;69.00
81630;DHT22;71039;49.500;10.418;2023-12-29T07:06:03;10.30;69.10
81630;DHT22;71039;49.500;10.418;2023-12-29T07:08:29;10.30;69.10
81630;DHT22;71039;49.500;10.418;2023-12-29T07:10:54;10.40;69.10
81630;DHT22;71039;49.500;10.418;2023-12-29T07:13:20;10.40;69.10
81630;DHT22;71039;49.500;10.418;2023-12-29T07:15:47;10.50;69.10
81630;DHT22;71039;49.500;10.418;2023-12-29T07:18:13;10.50;69.00
81630;DHT22;71039;49.500;10.418;2023-12-29T07:20:38;10.50;69.00
81630;DHT22;71039;49.500;10.418;2023-12-29T07:23:04;10.60;69.00
81630;DHT22;71039;49.500;10.418;2023-12-29T07:25:29;10.60;68.90
81630;DHT22;71039;49.500;10.418;2023-12-29T07:27:55;10.60;68.90
81630;DHT22;71039;49.500;10.418;2023-12-29T07:30:20;10.70;68.90
81630;DHT22;71039;49.500;10.418;2023-12-29T07:32:46;10.70;68.70
81630;DHT22;71039;49.500;10.418;2023-12-29T07:35:11;10.70;68.70
81630;DHT22;71039;49.500;10.418;2023-12-29T07:37:37;10.70;68.50
81630;DHT22;71039;49.500;10.418;2023-12-29T07:40:03;10.80;68.50
81630;DHT22;71039;49.500;10.418;2023-12-29T07:42:28;10.80;68.40
81630;DHT22;71039;49.500;10.418;2023-12-29T07:44:54;10.80;68.30
81630;DHT22;71039;49.500;10.418;2023-12-29T07:47:19;10.80;68.30
81630;DHT22;71039;49.500;10.418;2023-12-29T07:49:45;10.80;68.30
81630;DHT22;71039;49.500;10.418;2023-12-29T07:52:10;10.80;68.30
81630;DHT22;71039;49.500;10.418;2023-12-29T07:54:36;10.80;68.20
81630;DHT22;71039;49.500;10.418;2023-12-29T07:57:01;10.80;68.20
81630;DHT22;71039;49.500;10.418;2023-12-29T07:59:27;10.80;68.20
81630;DHT22;71039;49.500;10.418;2023-12-29T08:01:52;10.80;68.20
81630;DHT22;71039;49.500;10.418;2023-12-29T08:04:18;10.90;68.20
81630;DHT22;71039;49.500;10.418;2023-12-29T08:06:43;10.90;68.30
81630;DHT22;71039;49.500;10.418;2023-12-29T08:09:09;10.90;68.30
81630;DHT22;71039;49.500;10.418;2023-12-29T08:11:35;10.90;68.30
81630;DHT22;71039;49.500;10.418;2023-12-29T08:14:00;10.90;68.20
81630;DHT22;71039;49.500;10.418;2023-12-29T08:16:26;11.00;68.20
81630;DHT22;71039;49.500;10.418;2023-12-29T08:18:52;11.00;68.10
81630;DHT22;71039;49.500;10.418;2023-12-29T08:21:18;11.00;68.20
81630;DHT22;71039;49.500;10.418;2023-12-29T08:23:45;11.00;68.20
81630;DHT22;71039;49.500;10.418;2023-12-29T08:26:11;11.10;68.30
81630;DHT22;71039;49.500;10.418;2023-12-29T08:28:36;11.10;68.20
81630;DHT22;71039;49.500;10.418;2023-12-29T08:31:02;11.10;68.20
81630;DHT22;71039;49.500;10.418;2023-12-29T08:33:27;11.10;68.20
81630;DHT22;71039;49.500;10.418;2023-12-29T08:35:53;11.20;68.20
81630;DHT22;71039;49.500;10.418;2023-12-29T08:38:18;11.30;68.20
81630;DHT22;71039;49.500;10.418;2023-12-29T08:40:44;11.30;68.20
81630;DHT22;71039;49.500;10.418;2023-12-29T08:43:09;11.30;68.30
81630;DHT22;71039;49.500;10.418;2023-12-29T08:45:35;11.40;68.40
81630;DHT22;71039;49.500;10.418;2023-12-29T08:48:01;11.50;68.30
81630;DHT22;71039;49.500;10.418;2023-12-29T08:50:26;11.50;68.20
81630;DHT22;71039;49.500;10.418;2023-12-29T08:52:52;11.50;68.20
81630;DHT22;71039;49.500;10.418;2023-12-29T08:55:17;11.70;68.20
81630;DHT22;71039;49.500;10.418;2023-12-29T08:57:43;11.70;68.10
81630;DHT22;71039;49.500;10.418;2023-12-29T09:00:08;11.70;67.90
81630;DHT22;71039;49.500;10.418;2023-12-29T09:02:34;11.80;68.00
81630;DHT22;71039;49.500;10.418;2023-12-29T09:05:00;11.90;68.00
81630;DHT22;71039;49.500;10.418;2023-12-29T09:07:25;11.90;67.80
81630;DHT22;71039;49.500;10.418;2023-12-29T09:09:51;12.00;67.60
81630;DHT22;71039;49.500;10.418;2023-12-29T09:12:16;12.10;67.50
81630;DHT22;71039;49.500;10.418;2023-12-29T09:14:42;12.10;67.30
81630;DHT22;71039;49.500;10.418;2023-12-29T09:17:07;12.20;67.20
81630;DHT22;71039;49.500;10.418;2023-12-29T09:19:33;12.20;67.10
81630;DHT22;71039;49.500;10.418;2023-12-29T09:21:58;12.30;66.90
81630;DHT22;71039;49.500;10.418;2023-12-29T09:24:24;12.30;66.70
81630;DHT22;71039;49.500;10.418;2023-12-29T09:26:49;12.30;66.60
81630;DHT22;71039;49.500;10.418;2023-12-29T09:29:15;12.30;66.50
81630;DHT22;71039;49.500;10.418;2023-12-29T09:31:41;12.30;66.50
81630;DHT22;71039;49.500;10.418;2023-12-29T09:34:07;12.40;66.50
81630;DHT22;71039;49.500;10.418;2023-12-29T09:36:32;12.40;66.40
81630;DHT22;71039;49.500;10.418;2023-12-29T09:38:58;12.50;66.30
81630;DHT22;71039;49.500;10.418;2023-12-29T09:41:24;12.50;66.20
81630;DHT22;71039;49.500;10.418;2023-12-29T09:43:51;12.50;66.00
81630;DHT22;71039;49.500;10.418;2023-12-29T09:46:17;12.50;65.90
81630;DHT22;71039;49.500;10.418;2023-12-29T09:48:46;12.50;65.90
81630;DHT22;71039;49.500;10.418;2023-12-29T09:51:12;12.50;65.80
81630;DHT22;71039;49.500;10.418;2023-12-29T09:53:38;12.50;65.80
81630;DHT22;71039;49.500;10.418;2023-12-29T09:56:07;12.50;65.80
81630;DHT22;71039;49.500;10.418;2023-12-29T09:58:33;12.50;65.70
81630;DHT22;71039;49.500;10.418;2023-12-29T10:01:01;12.50;65.70
81630;DHT22;71039;49.500;10.418;2023-12-29T10:03:28;12.50;65.70
81630;DHT22;71039;49.500;10.418;2023-12-29T10:05:56;12.50;65.70
81630;DHT22;71039;49.500;10.418;2023-12-29T10:08:26;12.50;65.70
81630;DHT22;71039;49.500;10.418;2023-12-29T10:10:53;12.50;65.70
81630;DHT22;71039;49.500;10.418;2023-12-29T10:13:21;12.50;65.80
81630;DHT22;71039;49.500;10.418;2023-12-29T10:15:50;12.40;66.00
81630;DHT22;71039;49.500;10.418;2023-12-29T10:21:01;12.50;66.30
81630;DHT22;71039;49.500;10.418;2023-12-29T10:23:38;12.50;66.40
81630;DHT22;71039;49.500;10.418;2023-12-29T10:26:07;12.50;66.60
81630;DHT22;71039;49.500;10.418;2023-12-29T10:28:35;12.50;66.80
81630;DHT22;71039;49.500;10.418;2023-12-29T10:31:01;12.50;66.80
81630;DHT22;71039;49.500;10.418;2023-12-29T10:33:26;12.50;66.70
81630;DHT22;71039;49.500;10.418;2023-12-29T10:35:57;12.60;66.70
81630;DHT22;71039;49.500;10.418;2023-12-29T10:38:22;12.60;66.60
81630;DHT22;71039;49.500;10.418;2023-12-29T10:40:48;12.70;66.60
81630;DHT22;71039;49.500;10.418;2023-12-29T10:43:13;12.70;66.50
81630;DHT22;71039;49.500;10.418;2023-12-29T10:45:46;12.80;66.50
81630;DHT22;71039;49.500;10.418;2023-12-29T10:48:12;12.80;66.40
81630;DHT22;71039;49.500;10.418;2023-12-29T10:50:44;12.90;66.20
81630;DHT22;71039;49.500;10.418;2023-12-29T10:53:14;12.90;65.90
81630;DHT22;71039;49.500;10.418;2023-12-29T10:55:39;12.90;65.80
81630;DHT22;71039;49.500;10.418;2023-12-29T10:58:05;12.90;65.70
81630;DHT22;71039;49.500;10.418;2023-12-29T11:00:31;12.90;65.50
81630;DHT22;71039;49.500;10.418;2023-12-29T11:02:57;12.90;65.40
81630;DHT22;71039;49.500;10.418;2023-12-29T11:05:25;12.90;65.40
81630;DHT22;71039;49.500;10.418;2023-12-29T11:07:52;12.90;65.30
81630;DHT22;71039;49.500;10.418;2023-12-29T11:10:18;12.90;65.20
81630;DHT22;71039;49.500;10.418;2023-12-29T11:12:44;12.90;65.10
81630;DHT22;71039;49.500;10.418;2023-12-29T11:15:13;12.80;65.10
81630;DHT22;71039;49.500;10.418;2023-12-29T11:17:41;12.80;65.00
81630;DHT22;71039;49.500;10.418;2023-12-29T11:20:07;12.80;64.90
81630;DHT22;71039;49.500;10.418;2023-12-29T11:22:33;12.80;64.90
81630;DHT22;71039;49.500;10.418;2023-12-29T11:24:59;12.70;65.00
81630;DHT22;71039;49.500;10.418;2023-12-29T11:27:29;12.70;65.30
81630;DHT22;71039;49.500;10.418;2023-12-29T11:29:58;12.70;65.40
81630;DHT22;71039;49.500;10.418;2023-12-29T11:32:57;12.80;65.50
81630;DHT22;71039;49.500;10.418;2023-12-29T11:35:44;12.80;65.20
81630;DHT22;71039;49.500;10.418;2023-12-29T11:38:43;12.80;65.10
81630;DHT22;71039;49.500;10.418;2023-12-29T11:41:17;12.80;64.90
81630;DHT22;71039;49.500;10.418;2023-12-29T11:43:44;12.90;65.30
81630;DHT22;71039;49.500;10.418;2023-12-29T11:46:32;12.90;65.20
81630;DHT22;71039;49.500;10.418;2023-12-29T11:48:58;12.90;64.90
81630;DHT22;71039;49.500;10.418;2023-12-29T11:53:56;13.00;65.00
81630;DHT22;71039;49.500;10.418;2023-12-29T11:56:21;13.00;65.10
81630;DHT22;71039;49.500;10.418;2023-12-29T11:58:47;13.00;65.10
81630;DHT22;71039;49.500;10.418;2023-12-29T12:01:12;13.00;65.20
81630;DHT22;71039;49.500;10.418;2023-12-29T12:03:38;13.10;65.20
81630;DHT22;71039;49.500;10.418;2023-12-29T12:06:04;13.10;65.20
81630;DHT22;71039;49.500;10.418;2023-12-29T12:08:31;13.10;65.20
81630;DHT22;71039;49.500;10.418;2023-12-29T12:13:55;13.20;64.70
81630;DHT22;71039;49.500;10.418;2023-12-29T12:19:13;13.30;64.40
81630;DHT22;71039;49.500;10.418;2023-12-29T12:21:38;13.30;64.50
81630;DHT22;71039;49.500;10.418;2023-12-29T12:24:06;13.30;64.40
81630;DHT22;71039;49.500;10.418;2023-12-29T12:26:32;13.30;64.30
81630;DHT22;71039;49.500;10.418;2023-12-29T12:28:58;13.30;64.30
81630;DHT22;71039;49.500;10.418;2023-12-29T12:31:23;13.40;64.20
81630;DHT22;71039;49.500;10.418;2023-12-29T12:33:56;13.50;64.10
81630;DHT22;71039;49.500;10.418;2023-12-29T12:36:23;13.50;63.80
81630;DHT22;71039;49.500;10.418;2023-12-29T12:38:56;13.50;63.80
81630;DHT22;71039;49.500;10.418;2023-12-29T12:41:26;13.50;63.50
81630;DHT22;71039;49.500;10.418;2023-12-29T12:44:11;13.50;63.50
81630;DHT22;71039;49.500;10.418;2023-12-29T12:46:41;13.50;63.20
81630;DHT22;71039;49.500;10.418;2023-12-29T12:49:10;13.50;63.70
81630;DHT22;71039;49.500;10.418;2023-12-29T12:51:35;13.50;63.80
81630;DHT22;71039;49.500;10.418;2023-12-29T12:54:01;13.50;63.90
81630;DHT22;71039;49.500;10.418;2023-12-29T12:56:27;13.60;63.80
81630;DHT22;71039;49.500;10.418;2023-12-29T12:58:56;13.60;63.70
81630;DHT22;71039;49.500;10.418;2023-12-29T13:01:23;13.60;63.60
81630;DHT22;71039;49.500;10.418;2023-12-29T13:03:49;13.60;63.60
81630;DHT22;71039;49.500;10.418;2023-12-29T13:06:14;13.70;63.30
81630;DHT22;71039;49.500;10.418;2023-12-29T13:08:41;13.70;63.00
81630;DHT22;71039;49.500;10.418;2023-12-29T13:11:07;13.70;62.80
81630;DHT22;71039;49.500;10.418;2023-12-29T13:13:40;13.70;62.60
81630;DHT22;71039;49.500;10.418;2023-12-29T13:16:05;13.70;62.40
81630;DHT22;71039;49.500;10.418;2023-12-29T13:18:31;13.70;62.40
81630;DHT22;71039;49.500;10.418;2023-12-29T13:20:57;13.70;62.40
81630;DHT22;71039;49.500;10.418;2023-12-29T13:23:27;13.70;62.40
81630;DHT22;71039;49.500;10.418;2023-12-29T13:26:05;13.60;62.40
81630;DHT22;71039;49.500;10.418;2023-12-29T13:28:31;13.60;62.40
81630;DHT22;71039;49.500;10.418;2023-12-29T13:30:57;13.60;62.50
81630;DHT22;71039;49.500;10.418;2023-12-29T13:35:54;13.60;62.60
81630;DHT22;71039;49.500;10.418;2023-12-29T13:38:25;13.60;62.60
81630;DHT22;71039;49.500;10.418;2023-12-29T13:41:02;13.60;62.50
81630;DHT22;71039;49.500;10.418;2023-12-29T13:43:31;13.60;62.40
81630;DHT22;71039;49.500;10.418;2023-12-29T13:45:58;13.60;62.50
81630;DHT22;71039;49.500;10.418;2023-12-29T13:48:24;13.60;62.30
81630;DHT22;71039;49.500;10.418;2023-12-29T13:50:51;13.60;62.20
81630;DHT22;71039;49.500;10.418;2023-12-29T13:53:20;13.60;62.10
81630;DHT22;71039;49.500;10.418;2023-12-29T13:55:46;13.60;61.90
81630;DHT22;71039;49.500;10.418;2023-12-29T13:58:12;13.60;61.90
81630;DHT22;71039;49.500;10.418;2023-12-29T14:00:40;13.60;61.80
81630;DHT22;71039;49.500;10.418;2023-12-29T14:03:10;13.60;61.60
81630;DHT22;71039;49.500;10.418;2023-12-29T14:08:10;13.50;61.30
81630;DHT22;71039;49.500;10.418;2023-12-29T14:10:41;13.50;61.20
81630;DHT22;71039;49.500;10.418;2023-12-29T14:13:12;13.50;61.20
81630;DHT22;71039;49.500;10.418;2023-12-29T14:15:40;13.50;61.10
81630;DHT22;71039;49.500;10.418;2023-12-29T14:21:05;13.30;60.60
81630;DHT22;71039;49.500;10.418;2023-12-29T14:24:15;13.30;61.10
81630;DHT22;71039;49.500;10.418;2023-12-29T14:29:19;13.30;61.20
81630;DHT22;71039;49.500;10.418;2023-12-29T14:31:46;13.30;61.20
81630;DHT22;71039;49.500;10.418;2023-12-29T14:34:13;13.20;61.30
81630;DHT22;71039;49.500;10.418;2023-12-29T14:36:42;13.20;61.20
81630;DHT22;71039;49.500;10.418;2023-12-29T14:39:08;13.20;61.10
81630;DHT22;71039;49.500;10.418;2023-12-29T14:41:34;13.10;61.20
81630;DHT22;71039;49.500;10.418;2023-12-29T14:43:59;13.10;61.30
81630;DHT22;71039;49.500;10.418;2023-12-29T14:46:25;13.10;61.20
81630;DHT22;71039;49.500;10.418;2023-12-29T14:48:52;13.10;61.20
81630;DHT22;71039;49.500;10.418;2023-12-29T14:51:18;13.10;61.00
81630;DHT22;71039;49.500;10.418;2023-12-29T14:53:47;13.10;60.90
81630;DHT22;71039;49.500;10.418;2023-12-29T14:56:14;13.10;60.80
81630;DHT22;71039;49.500;10.418;2023-12-29T14:58:39;13.00;60.70
81630;DHT22;71039;49.500;10.418;2023-12-29T15:01:05;13.00;60.70
81630;DHT22;71039;49.500;10.418;2023-12-29T15:03:31;13.00;60.80
81630;DHT22;71039;49.500;10.418;2023-12-29T15:05:57;12.90;60.80
81630;DHT22;71039;49.500;10.418;2023-12-29T15:08:22;12.90;60.70
81630;DHT22;71039;49.500;10.418;2023-12-29T15:10:48;12.90;60.70
81630;DHT22;71039;49.500;10.418;2023-12-29T15:13:13;12.80;60.70
81630;DHT22;71039;49.500;10.418;2023-12-29T15:15:39;12.80;60.60
81630;DHT22;71039;49.500;10.418;2023-12-29T15:18:05;12.70;60.50
81630;DHT22;71039;49.500;10.418;2023-12-29T15:20:30;12.70;60.50
81630;DHT22;71039;49.500;10.418;2023-12-29T15:22:56;12.60;60.50
81630;DHT22;71039;49.500;10.418;2023-12-29T15:25:22;12.60;60.50
81630;DHT22;71039;49.500;10.418;2023-12-29T15:27:47;12.50;60.50
81630;DHT22;71039;49.500;10.418;2023-12-29T15:30:13;12.50;60.50
81630;DHT22;71039;49.500;10.418;2023-12-29T15:32:38;12.50;60.50
81630;DHT22;71039;49.500;10.418;2023-12-29T15:35:04;12.40;60.60
81630;DHT22;71039;49.500;10.418;2023-12-29T15:37:30;12.30;60.60